Time;durP1;ratioP1;P1;durP2;ratioP2;P2;SDS_P1;SDS_P2;PMS_P1;PMS_P2;Temp;Humidity;BMP_temperature;BMP_pressure;BME280_temperature;BME280_humidity;BME280_pressure;Samples;Min_cycle;Max_cycle;Signal;HPM_P1;HPM_P2
2022/04/22 00:02:24;;;;;;;21.00;7.47;;;;;;;38.50;42.19;100898.31;5070288;28;20812;-69
2022/04/22 00:04:50;;;;;;;12.57;6.60;;;;;;;38.51;42.15;100889.88;5070601;28;20426;-71
2022/04/22 00:07:17;;;;;;;21.00;7.40;;;;;;;38.53;42.47;100892.25;5070691;28;20425;-69
2022/04/22 00:09:43;;;;;;;15.60;6.53;;;;;;;38.53;42.16;100901.19;5071837;28;20413;-71
2022/04/22 00:12:10;;;;;;;12.67;6.67;;;;;;;38.52;42.54;100894.19;5070668;28;20430;-69
2022/04/22 00:14:36;;;;;;;17.10;7.37;;;;;;;38.52;42.76;100880.63;5071905;28;20402;-70
2022/04/22 00:17:02;;;;;;;14.80;6.73;;;;;;;38.53;42.31;100870.59;5053803;28;20469;-69
2022/04/22 00:19:29;;;;;;;12.07;6.27;;;;;;;38.52;42.21;100874.41;5071926;28;20397;-69
2022/04/22 00:21:56;;;;;;;13.50;7.30;;;;;;;38.50;42.12;100874.72;5070333;28;20535;-70
2022/04/22 00:24:22;;;;;;;17.93;7.53;;;;;;;38.46;42.53;100860.19;5070495;28;20596;-71
2022/04/22 00:26:48;;;;;;;16.97;7.80;;;;;;;38.44;42.61;100855.06;5053851;28;20555;-71
2022/04/22 00:29:14;;;;;;;20.50;7.33;;;;;;;38.44;42.70;100849.66;5071566;28;20461;-70
2022/04/22 00:31:40;;;;;;;9.90;6.70;;;;;;;38.42;42.50;100846.44;5053884;28;20425;-70
2022/04/22 00:34:06;;;;;;;13.00;7.00;;;;;;;38.40;42.55;100837.03;5070399;28;20497;-69
2022/04/22 00:36:33;;;;;;;11.23;6.03;;;;;;;38.38;42.64;100837.34;5070256;28;20500;-71
2022/04/22 00:39:01;;;;;;;9.60;5.50;;;;;;;38.40;42.34;100834.31;5053532;28;20426;-70
2022/04/22 00:41:27;;;;;;;9.13;5.80;;;;;;;38.42;42.45;100829.38;5070264;28;20394;-69
2022/04/22 00:43:55;;;;;;;12.30;5.87;;;;;;;38.41;42.62;100830.50;5070251;28;21083;-69
2022/04/22 00:46:21;;;;;;;14.10;6.60;;;;;;;38.49;42.08;100815.38;5070129;28;20414;-69
2022/04/22 00:48:47;;;;;;;14.80;7.87;;;;;;;38.43;42.14;100820.16;5071480;28;20417;-69
2022/04/22 00:51:14;;;;;;;24.53;8.40;;;;;;;38.39;42.27;100822.69;5070093;28;20453;-70
2022/04/22 00:53:42;;;;;;;16.20;8.97;;;;;;;38.37;42.50;100821.41;5053833;28;20437;-69
2022/04/22 00:56:13;;;;;;;20.17;7.67;;;;;;;38.36;42.45;100823.28;5069996;28;20446;-69
2022/04/22 00:58:41;;;;;;;18.77;6.87;;;;;;;38.37;42.51;100816.78;5066088;28;20425;-69
2022/04/22 01:01:08;;;;;;;13.07;7.37;;;;;;;38.38;42.17;100798.63;5052776;28;21004;-70
2022/04/22 01:03:34;;;;;;;14.07;7.60;;;;;;;38.38;42.24;100793.19;5068225;28;20517;-71
2022/04/22 01:11:36;;;;;;;13.30;6.27;;;;;;;38.38;42.51;100777.72;5070098;28;20973;-70
2022/04/22 01:14:07;;;;;;;9.77;5.57;;;;;;;38.42;42.55;100780.59;5073214;28;20489;-70
2022/04/22 01:16:34;;;;;;;10.83;7.37;;;;;;;38.39;42.62;100781.25;5071891;28;20466;-71
2022/04/22 01:19:00;;;;;;;10.97;5.57;;;;;;;38.37;42.29;100775.34;5071808;28;20475;-71
2022/04/22 01:21:26;;;;;;;9.80;5.30;;;;;;;38.37;42.73;100775.34;5073420;28;20981;-70
2022/04/22 01:23:53;;;;;;;10.03;5.73;;;;;;;38.36;42.57;100766.38;5072178;28;20420;-71
2022/04/22 01:26:19;;;;;;;8.90;6.10;;;;;;;38.29;42.91;100762.53;5074774;28;20401;-71
2022/04/22 01:28:46;;;;;;;9.73;5.60;;;;;;;38.26;42.60;100757.72;5073491;28;20523;-69
2022/04/22 01:31:12;;;;;;;25.93;6.47;;;;;;;38.28;42.67;100755.50;5074553;28;20437;-71
2022/04/22 01:33:39;;;;;;;10.20;5.07;;;;;;;38.29;42.53;100759.81;5073424;28;20421;-69
2022/04/22 01:36:07;;;;;;;14.20;5.97;;;;;;;38.28;42.54;100750.09;5073214;28;20438;-71
2022/04/22 01:38:33;;;;;;;9.40;5.90;;;;;;;38.28;42.68;100758.22;5073378;28;20432;-71
2022/04/22 01:40:59;;;;;;;11.60;6.87;;;;;;;38.28;42.48;100752.81;5073317;28;20440;-71
2022/04/22 01:43:25;;;;;;;16.80;7.30;;;;;;;38.22;42.53;100752.09;5074380;28;20433;-70
2022/04/22 01:45:52;;;;;;;15.83;8.50;;;;;;;38.26;42.79;100765.84;5073137;28;20417;-71
2022/04/22 01:48:20;;;;;;;14.83;8.27;;;;;;;38.26;43.08;100763.13;5073135;28;20426;-71
2022/04/22 01:50:46;;;;;;;12.60;6.80;;;;;;;38.25;42.99;100759.63;5073199;28;20418;-71
2022/04/22 01:53:12;;;;;;;13.77;7.43;;;;;;;38.19;42.94;100755.44;5072918;28;20516;-70
2022/04/22 01:55:38;;;;;;;21.90;6.23;;;;;;;38.23;42.97;100756.41;5074299;28;20420;-70
2022/04/22 01:58:05;;;;;;;11.20;7.40;;;;;;;38.25;42.68;100742.56;5072701;28;20895;-71
2022/04/22 02:00:31;;;;;;;11.87;5.80;;;;;;;38.30;42.53;100751.38;5074276;28;20413;-69
2022/04/22 02:02:57;;;;;;;10.70;5.30;;;;;;;38.28;42.73;100744.69;5072834;28;20418;-69
2022/04/22 02:05:23;;;;;;;10.77;5.00;;;;;;;38.30;42.60;100742.44;5072710;28;20477;-69
2022/04/22 02:07:50;;;;;;;10.63;5.53;;;;;;;38.29;42.51;100744.34;5072744;28;20418;-71
2022/04/22 02:10:16;;;;;;;11.53;4.63;;;;;;;38.25;42.69;100743.38;5072776;28;20417;-71
2022/04/22 02:12:42;;;;;;;8.50;5.63;;;;;;;38.26;42.51;100742.28;5072555;28;20829;-71
2022/04/22 02:15:09;;;;;;;15.70;6.53;;;;;;;38.17;43.01;100742.19;5072569;28;20457;-69
2022/04/22 02:17:35;;;;;;;7.80;5.20;;;;;;;38.17;42.75;100734.06;5072595;28;20461;-69
2022/04/22 02:20:02;;;;;;;18.90;7.70;;;;;;;38.12;42.67;100739.63;5072348;28;21017;-69
2022/04/22 02:22:28;;;;;;;10.27;6.23;;;;;;;38.08;42.76;100730.53;5072561;28;20957;-69
2022/04/22 02:24:56;;;;;;;16.27;5.70;;;;;;;38.09;43.10;100718.56;5071589;28;20479;-71
2022/04/22 02:30:07;;;;;;;11.73;6.83;;;;;;;37.65;44.09;100714.78;5073387;28;21051;-71
2022/04/22 02:32:33;;;;;;;13.20;7.63;;;;;;;37.52;44.55;100718.34;5073669;28;20451;-71
2022/04/22 02:34:59;;;;;;;11.93;7.77;;;;;;;37.27;45.16;100722.41;5072144;28;20406;-71
2022/04/22 02:37:26;;;;;;;25.20;8.20;;;;;;;37.36;45.22;100727.91;5072196;28;20961;-71
2022/04/22 02:39:52;;;;;;;12.40;8.00;;;;;;;37.37;44.91;100740.31;5072252;28;20398;-70
2022/04/22 02:45:49;;;;;;;26.37;17.40;;;;;;;37.61;44.55;100748.16;5073298;28;20804;-71
2022/04/22 02:47:51;;;;;;;35.27;26.83;;;;;;;37.53;45.59;100748.91;5065836;28;20424;-69
2022/04/22 02:50:17;;;;;;;36.33;29.70;;;;;;;37.33;45.48;100744.72;5073033;28;20434;-69
2022/04/22 02:52:43;;;;;;;35.63;27.67;;;;;;;37.27;46.17;100751.38;5073377;28;20414;-71
2022/04/22 02:55:09;;;;;;;40.90;31.70;;;;;;;37.21;46.32;100752.56;5071727;28;20442;-71
2022/04/22 02:57:35;;;;;;;48.73;35.33;;;;;;;37.22;46.07;100754.16;5072935;28;20521;-69
2022/04/22 03:00:02;;;;;;;67.77;44.13;;;;;;;37.36;45.67;100753.06;5072966;28;20481;-70
2022/04/22 03:02:29;;;;;;;47.83;38.60;;;;;;;37.38;45.39;100755.44;5071744;28;20413;-69
2022/04/22 03:04:55;;;;;;;56.17;41.90;;;;;;;37.43;45.77;100760.75;5072907;28;20455;-69
2022/04/22 03:07:21;;;;;;;54.60;41.67;;;;;;;37.34;46.04;100751.78;5072759;28;20390;-70
2022/04/22 03:09:47;;;;;;;56.90;49.60;;;;;;;37.20;46.25;100762.59;5072871;28;20797;-70
2022/04/22 03:12:14;;;;;;;60.40;49.87;;;;;;;37.27;46.01;100756.78;5071356;28;20521;-71
2022/04/22 03:14:40;;;;;;;61.77;47.67;;;;;;;37.08;46.38;100748.78;5071517;28;20423;-70
2022/04/22 03:17:07;;;;;;;58.57;48.97;;;;;;;36.91;46.20;100751.31;5072574;28;20524;-69
2022/04/22 03:19:33;;;;;;;66.63;51.13;;;;;;;37.05;46.14;100750.19;5071403;28;20434;-69
2022/04/22 03:21:59;;;;;;;61.97;54.37;;;;;;;36.86;46.67;100757.59;5071276;28;20975;-69
2022/04/22 03:24:25;;;;;;;65.00;53.80;;;;;;;36.97;46.51;100755.50;5071216;28;20421;-71
2022/04/22 03:26:52;;;;;;;68.20;54.73;;;;;;;37.08;45.96;100757.69;5071297;28;20406;-70
2022/04/22 03:29:18;;;;;;;73.27;58.20;;;;;;;37.00;46.40;100749.47;5070905;28;20559;-69
2022/04/22 03:31:44;;;;;;;73.50;57.50;;;;;;;37.13;46.04;100749.47;5071171;28;20437;-69
2022/04/22 03:34:10;;;;;;;65.90;55.43;;;;;;;37.12;45.75;100758.69;5071064;28;20508;-69
2022/04/22 03:36:36;;;;;;;70.33;58.40;;;;;;;37.12;45.32;100761.38;5072488;28;20491;-71
2022/04/22 03:39:03;;;;;;;60.77;57.83;;;;;;;36.98;45.79;100771.41;5072316;28;20915;-69
2022/04/22 03:41:29;;;;;;;70.97;59.00;;;;;;;36.96;45.84;100770.13;5072295;28;20393;-70
2022/04/22 03:43:55;;;;;;;65.03;54.70;;;;;;;36.82;46.13;100765.47;5071098;28;20449;-71
2022/04/22 03:46:21;;;;;;;64.30;59.80;;;;;;;36.89;46.08;100772.41;5070985;28;20410;-71
2022/04/22 03:48:47;;;;;;;69.70;53.97;;;;;;;36.93;46.60;100785.03;5070783;28;20417;-71
2022/04/22 03:51:14;;;;;;;72.90;59.97;;;;;;;36.75;46.67;100786.72;5070867;28;20940;-71
2022/04/22 03:53:41;;;;;;;73.27;56.73;;;;;;;36.72;46.89;100781.91;5070738;28;20409;-71
2022/04/22 03:58:51;;;;;;;63.17;52.53;;;;;;;36.99;45.95;100781.13;5071840;28;20428;-69
2022/04/22 04:01:17;;;;;;;66.37;53.90;;;;;;;36.66;46.02;100790.41;5054072;28;20428;-70
2022/04/22 04:03:43;;;;;;;67.20;55.90;;;;;;;36.23;47.07;100779.81;5070632;28;20445;-69
2022/04/22 04:06:09;;;;;;;73.30;55.87;;;;;;;36.36;46.72;100784.44;5070537;28;20453;-71
2022/04/22 04:08:36;;;;;;;63.10;54.60;;;;;;;36.46;47.03;100783.47;5070929;28;20506;-69
2022/04/22 04:16:31;;;;;;;55.20;47.57;;;;;;;36.45;47.15;100790.78;5071838;28;20460;-71
2022/04/22 04:23:14;;;;;;;56.17;50.03;;;;;;;36.24;47.32;100794.91;5070514;28;20421;-69
2022/04/22 04:24:27;;;;;;;53.20;44.40;;;;;;;36.46;46.96;100808.59;5070788;28;20772;-71
2022/04/22 04:26:53;;;;;;;48.70;42.93;;;;;;;36.10;47.78;100804.88;5070429;28;20414;-71
2022/04/22 04:29:20;;;;;;;52.00;43.03;;;;;;;36.26;47.14;100812.41;5070100;28;20481;-69
2022/04/22 04:31:47;;;;;;;52.73;41.40;;;;;;;36.08;47.63;100805.13;5070432;28;20436;-69
2022/04/22 04:34:13;;;;;;;46.87;43.70;;;;;;;36.05;47.29;100813.84;5070306;28;20816;-69
2022/04/22 04:36:39;;;;;;;46.13;42.73;;;;;;;35.94;48.03;100815.91;5053745;28;20969;-71
2022/04/22 04:39:06;;;;;;;48.80;43.23;;;;;;;36.22;47.00;100821.41;5070317;28;20421;-71
2022/04/22 04:41:32;;;;;;;51.13;43.53;;;;;;;36.41;46.68;100821.41;5070202;28;20410;-69
2022/04/22 04:43:58;;;;;;;49.47;39.70;;;;;;;36.49;46.68;100824.22;5070140;28;20972;-69
2022/04/22 04:46:24;;;;;;;52.60;42.90;;;;;;;36.42;46.35;100823.78;5070356;28;20910;-70
2022/04/22 04:48:50;;;;;;;57.03;43.30;;;;;;;36.35;46.98;100827.97;5074138;28;20822;-69
2022/04/22 04:51:16;;;;;;;53.40;41.00;;;;;;;36.48;46.52;100821.81;5074171;28;20897;-69
2022/04/22 04:53:42;;;;;;;45.60;40.30;;;;;;;36.52;46.48;100829.03;5074143;28;20471;-70
2022/04/22 04:56:09;;;;;;;47.87;42.80;;;;;;;36.48;46.55;100825.31;5073952;28;20476;-71
2022/04/22 04:58:35;;;;;;;49.27;43.07;;;;;;;36.51;46.13;100835.50;5074089;28;20453;-69
2022/04/22 05:01:01;;;;;;;48.23;40.40;;;;;;;36.56;46.26;100832.72;5074019;28;20818;-69
2022/04/22 05:03:27;;;;;;;49.00;41.87;;;;;;;36.64;46.06;100844.75;5073960;28;20454;-69
2022/04/22 05:05:53;;;;;;;54.53;41.73;;;;;;;36.76;46.40;100836.16;5073792;28;20425;-71
2022/04/22 05:08:19;;;;;;;49.87;39.73;;;;;;;36.76;46.22;100845.06;5073693;28;20453;-71
2022/04/22 05:10:46;;;;;;;45.93;38.47;;;;;;;36.69;46.22;100854.66;5073894;28;20513;-71
2022/04/22 05:13:12;;;;;;;48.83;39.83;;;;;;;36.74;45.74;100849.19;5073688;28;20422;-71
2022/04/22 05:15:39;;;;;;;52.33;38.20;;;;;;;36.75;45.67;100856.19;5073531;28;20441;-71
2022/04/22 05:18:05;;;;;;;51.97;40.77;;;;;;;36.78;46.09;100861.00;5073581;28;20594;-70
2022/04/22 05:20:34;;;;;;;42.30;34.03;;;;;;;36.83;45.76;100861.72;5074909;28;20393;-69
2022/04/22 05:23:01;;;;;;;39.90;33.70;;;;;;;36.88;45.57;100863.53;5073481;28;21007;-71
2022/04/22 05:25:27;;;;;;;42.50;33.07;;;;;;;36.82;45.89;100860.09;5073490;28;20409;-71
2022/04/22 05:27:54;;;;;;;38.57;32.57;;;;;;;36.90;45.57;100861.34;5073585;28;20418;-71
2022/04/22 05:33:05;;;;;;;38.53;31.87;;;;;;;36.98;45.70;100865.25;5055030;28;20961;-71
2022/04/22 05:35:32;;;;;;;50.57;34.17;;;;;;;36.91;45.10;100868.34;5053306;28;20419;-68
2022/04/22 05:38:00;;;;;;;42.60;35.60;;;;;;;36.93;45.58;100868.84;5054442;28;20450;-71
2022/04/22 05:40:29;;;;;;;41.70;35.00;;;;;;;37.00;45.46;100871.97;5036871;28;20787;-69
2022/04/22 05:42:56;;;;;;;41.30;34.50;;;;;;;36.96;44.99;100875.59;5036547;28;20504;-69
2022/04/22 05:45:23;;;;;;;46.10;36.63;;;;;;;36.96;45.15;100872.88;5036661;28;20438;-70
2022/04/22 05:47:53;;;;;;;38.47;33.47;;;;;;;36.98;45.60;100876.06;5020129;28;20450;-69
2022/04/22 05:50:20;;;;;;;48.30;38.50;;;;;;;37.00;44.90;100879.28;5054457;28;20490;-69
2022/04/22 05:52:47;;;;;;;45.33;38.63;;;;;;;36.93;45.30;100889.69;5036487;28;20438;-69
2022/04/22 05:55:19;;;;;;;46.17;38.27;;;;;;;36.91;45.32;100889.19;5054358;28;20407;-68
2022/04/22 05:57:47;;;;;;;49.47;37.63;;;;;;;36.97;44.74;100902.31;5053503;28;20471;-70
2022/04/22 06:00:21;;;;;;;40.80;36.50;;;;;;;36.92;45.30;100902.41;5052227;28;20450;-68
2022/04/22 06:02:48;;;;;;;47.17;39.83;;;;;;;36.89;46.09;100891.38;5046772;28;20460;-65
2022/04/22 06:05:15;;;;;;;59.57;45.07;;;;;;;36.90;45.56;100891.09;5053552;28;20509;-69
2022/04/22 06:07:43;;;;;;;68.87;54.83;;;;;;;36.90;45.32;100893.81;5064647;28;20900;-68
2022/04/22 06:12:56;;;;;;;57.43;48.30;;;;;;;36.73;45.78;100901.63;5064552;28;20436;-68
2022/04/22 06:15:22;;;;;;;56.17;44.87;;;;;;;36.82;45.52;100894.44;5065956;28;20477;-68
2022/04/22 06:17:49;;;;;;;56.60;45.13;;;;;;;36.85;45.57;100897.34;5043754;28;20926;-71
2022/04/22 06:20:15;;;;;;;51.40;38.00;;;;;;;36.79;45.60;100890.44;5058587;28;20453;-68
2022/04/22 06:22:41;;;;;;;45.60;36.37;;;;;;;36.80;45.70;100908.25;5046257;28;20419;-66
2022/04/22 06:25:11;;;;;;;52.87;35.90;;;;;;;36.83;45.79;100906.84;5052590;28;20411;-68
2022/04/22 06:27:40;;;;;;;46.50;34.83;;;;;;;36.58;45.88;100911.59;5052591;28;20813;-70
2022/04/22 06:30:09;;;;;;;44.77;35.67;;;;;;;36.70;45.82;100913.81;5033318;28;20475;-68
2022/04/22 06:32:37;;;;;;;34.47;30.90;;;;;;;36.91;45.61;100922.44;5052234;28;20430;-68
2022/04/22 06:35:05;;;;;;;48.77;35.47;;;;;;;37.23;44.67;100920.75;5035123;28;20431;-67
2022/04/22 06:37:43;;;;;;;34.83;30.27;;;;;;;37.34;44.79;100919.50;5052392;28;20947;-67
2022/04/22 06:45:48;;;;;;;37.67;32.60;;;;;;;37.38;44.69;100936.72;5063181;28;20588;-67
2022/04/22 06:48:18;;;;;;;41.10;32.53;;;;;;;37.46;44.15;100946.88;5062584;28;20449;-68
2022/04/22 06:50:49;;;;;;;32.73;27.77;;;;;;;37.50;44.48;100950.56;5062035;28;20852;-68
2022/04/22 06:53:17;;;;;;;40.40;31.90;;;;;;;37.54;44.02;100948.84;5060640;28;20989;-68
2022/04/22 06:55:44;;;;;;;32.30;27.50;;;;;;;37.61;44.07;100951.16;5045523;28;20454;-68
2022/04/22 06:58:13;;;;;;;35.53;28.30;;;;;;;37.51;44.21;100952.19;5059620;28;20849;-68
2022/04/22 07:00:40;;;;;;;39.37;29.50;;;;;;;37.59;44.34;100954.19;5059658;28;20418;-69
2022/04/22 07:03:08;;;;;;;33.47;27.17;;;;;;;37.61;44.33;100959.28;5060467;28;20449;-68
2022/04/22 07:05:35;;;;;;;38.37;25.73;;;;;;;37.72;43.58;100962.59;5059728;28;20423;-67
2022/04/22 07:08:06;;;;;;;48.57;31.83;;;;;;;37.74;43.74;100971.19;5051519;28;20794;-67
2022/04/22 07:10:34;;;;;;;37.07;27.93;;;;;;;37.76;43.88;100969.00;5051197;28;20525;-69
2022/04/22 07:13:01;;;;;;;42.17;30.70;;;;;;;37.72;43.90;100973.41;5051442;28;20852;-68
2022/04/22 07:15:28;;;;;;;39.67;27.10;;;;;;;37.64;44.25;100973.03;5058770;28;20529;-65
2022/04/22 07:17:55;;;;;;;38.37;27.00;;;;;;;37.75;43.78;100972.78;5059169;28;20985;-68
2022/04/22 07:20:22;;;;;;;38.77;28.13;;;;;;;37.86;43.67;100976.94;5042777;28;20533;-65
2022/04/22 07:22:49;;;;;;;38.90;26.37;;;;;;;37.72;44.61;100970.72;5061316;28;20509;-66
2022/04/22 07:25:17;;;;;;;39.83;30.70;;;;;;;37.55;44.73;100965.91;5060826;28;20418;-68
2022/04/22 07:27:45;;;;;;;36.03;28.93;;;;;;;37.72;44.47;100974.22;5060987;28;20430;-68
2022/04/22 07:30:13;;;;;;;42.10;31.33;;;;;;;37.79;44.13;100981.94;5060344;28;21016;-66
2022/04/22 07:32:41;;;;;;;37.87;28.77;;;;;;;37.72;44.20;100974.22;5044204;28;20441;-66
2022/04/22 07:35:14;;;;;;;44.70;32.43;;;;;;;37.62;44.36;100980.63;5059546;28;20415;-66
2022/04/22 07:37:45;;;;;;;39.23;29.90;;;;;;;37.62;44.48;100985.22;5058521;28;20535;-65
2022/04/22 07:40:25;;;;;;;37.33;27.87;;;;;;;37.75;44.45;100992.56;5061527;28;20462;-69
2022/04/22 07:48:26;;;;;;;38.50;24.50;;;;;;;38.08;43.70;100998.69;5062121;28;20439;-67
2022/04/22 07:50:54;;;;;;;35.93;25.27;;;;;;;38.07;43.62;101002.50;5059130;28;20878;-67
2022/04/22 07:53:22;;;;;;;37.93;22.00;;;;;;;38.11;43.66;100998.06;5070640;28;20487;-69
2022/04/22 07:55:49;;;;;;;31.57;22.50;;;;;;;38.16;43.55;100997.94;5070574;28;20460;-69
2022/04/22 07:58:16;;;;;;;27.00;18.70;;;;;;;38.24;42.71;100995.63;5070741;28;20488;-69
2022/04/22 08:00:45;;;;;;;17.43;10.67;;;;;;;38.27;42.38;100987.72;5067693;28;20534;-72
2022/04/22 08:03:12;;;;;;;14.60;9.77;;;;;;;38.35;41.90;100992.41;5060555;28;20453;-69
2022/04/22 08:05:39;;;;;;;17.70;9.67;;;;;;;38.46;41.60;100990.28;5045478;28;20434;-70
2022/04/22 08:08:06;;;;;;;16.27;9.80;;;;;;;38.46;41.71;100992.19;5050579;28;20933;-70
2022/04/22 08:10:34;;;;;;;15.10;9.67;;;;;;;38.49;41.86;100988.84;5050616;28;20419;-70
2022/04/22 08:13:00;;;;;;;17.37;12.20;;;;;;;38.53;41.86;100993.34;5050350;28;20450;-70
2022/04/22 08:15:26;;;;;;;20.00;9.37;;;;;;;38.56;41.22;100995.47;5050423;28;20842;-70
2022/04/22 08:17:53;;;;;;;13.37;7.97;;;;;;;38.50;41.42;100988.56;5050491;28;20472;-68
2022/04/22 08:20:19;;;;;;;15.03;6.80;;;;;;;38.53;40.92;100981.72;5049763;28;20894;-70
2022/04/22 08:22:45;;;;;;;19.13;8.90;;;;;;;38.46;41.39;100986.75;5048781;28;20422;-70
2022/04/22 08:25:13;;;;;;;22.53;7.47;;;;;;;38.54;41.43;100989.53;5050293;28;20437;-69
2022/04/22 08:27:42;;;;;;;19.20;10.47;;;;;;;38.55;41.72;100990.31;5050264;28;20478;-69
2022/04/22 08:30:09;;;;;;;14.80;10.17;;;;;;;38.64;41.62;100985.78;5050238;28;20474;-69
2022/04/22 08:32:36;;;;;;;13.13;8.13;;;;;;;38.57;41.43;100988.13;5050306;28;20437;-70
2022/04/22 08:35:03;;;;;;;13.57;9.10;;;;;;;38.56;41.33;100991.94;5051546;28;20457;-70
2022/04/22 08:37:29;;;;;;;11.20;7.80;;;;;;;38.55;41.47;100991.16;5050130;28;20561;-70
2022/04/22 08:39:57;;;;;;;12.50;7.53;;;;;;;38.60;41.37;100991.00;5051475;28;20444;-69
2022/04/22 08:42:24;;;;;;;14.33;9.43;;;;;;;38.63;41.47;100987.69;5051677;28;20395;-68
2022/04/22 08:44:56;;;;;;;14.50;9.13;;;;;;;38.60;41.43;100990.22;5033629;28;20533;-68
2022/04/22 08:50:16;;;;;;;9.03;5.70;;;;;;;38.68;40.94;100986.78;5051390;28;20437;-70
2022/04/22 08:52:47;;;;;;;12.33;7.73;;;;;;;38.67;41.33;100996.81;5050307;28;20432;-69
2022/04/22 08:55:14;;;;;;;10.50;6.30;;;;;;;38.66;40.84;101003.34;5050013;28;20451;-67
2022/04/22 08:57:42;;;;;;;10.60;5.83;;;;;;;38.69;39.91;100999.22;5033610;28;20868;-70
2022/04/22 09:00:09;;;;;;;9.37;5.70;;;;;;;38.72;40.16;100995.91;5051420;28;20425;-70
2022/04/22 09:02:36;;;;;;;10.07;5.53;;;;;;;38.66;40.23;101003.34;5049869;28;20427;-70
2022/04/22 09:05:03;;;;;;;9.30;5.80;;;;;;;38.69;40.65;101004.63;5049928;28;20450;-70
2022/04/22 09:07:32;;;;;;;12.60;6.27;;;;;;;38.76;40.93;101001.53;5050022;28;20907;-70
2022/04/22 09:09:58;;;;;;;10.80;5.73;;;;;;;38.74;39.86;101001.84;5050086;28;20419;-69
2022/04/22 09:12:26;;;;;;;9.20;5.30;;;;;;;38.88;39.95;101001.78;5051159;28;20450;-69
2022/04/22 09:14:55;;;;;;;8.80;5.50;;;;;;;38.91;39.95;100990.28;5049990;28;20473;-72
2022/04/22 09:17:27;;;;;;;10.00;5.50;;;;;;;38.81;39.49;100993.28;5049850;28;20486;-71
2022/04/22 09:19:55;;;;;;;12.13;4.40;;;;;;;38.81;39.96;100982.44;5049945;28;20427;-69
2022/04/22 09:22:34;;;;;;;10.90;5.30;;;;;;;38.86;40.09;100983.09;5049790;28;20500;-71
2022/04/22 09:25:01;;;;;;;7.33;3.33;;;;;;;38.73;38.69;100980.44;5049938;28;20419;-71
2022/04/22 09:27:38;;;;;;;5.20;3.10;;;;;;;38.88;38.85;100972.75;5049673;28;20461;-71
2022/04/22 09:30:12;;;;;;;6.73;3.40;;;;;;;38.86;38.41;100974.97;5049694;28;20858;-71
2022/04/22 09:32:44;;;;;;;5.83;3.07;;;;;;;38.97;37.98;100983.63;5050185;28;20447;-70
2022/04/22 09:35:14;;;;;;;6.77;2.50;;;;;;;39.06;38.13;100980.97;5053438;28;20419;-69
2022/04/22 09:43:38;;;;;;;6.30;2.60;;;;;;;38.84;38.47;100982.59;5054829;28;20478;-71
2022/04/22 09:46:05;;;;;;;14.90;3.33;;;;;;;38.97;38.54;100992.56;5053241;28;20919;-71
2022/04/22 09:48:45;;;;;;;29.33;4.13;;;;;;;39.01;38.67;100984.63;5053156;28;20881;-69
2022/04/22 09:51:27;;;;;;;9.07;2.30;;;;;;;39.02;38.41;100988.13;5053262;28;20418;-69
2022/04/22 09:54:14;;;;;;;12.37;3.10;;;;;;;39.03;38.37;100990.53;5053033;28;20500;-71
2022/04/22 09:56:56;;;;;;;7.40;2.47;;;;;;;39.01;38.31;100981.91;5053019;28;20525;-71
2022/04/22 09:59:23;;;;;;;7.40;3.40;;;;;;;39.04;38.48;100988.59;5036483;28;20422;-69
2022/04/22 10:01:50;;;;;;;6.40;2.77;;;;;;;39.11;38.02;100997.13;5052963;28;20431;-70
2022/04/22 10:04:19;;;;;;;8.30;3.20;;;;;;;38.93;38.41;101007.06;5052761;28;20433;-70
2022/04/22 10:06:46;;;;;;;6.40;2.43;;;;;;;39.10;37.85;100999.03;5036170;28;20433;-69
2022/04/22 10:09:14;;;;;;;8.43;2.97;;;;;;;39.13;38.18;101006.53;5036199;28;20431;-70
2022/04/22 10:11:42;;;;;;;11.27;4.10;;;;;;;39.12;38.19;101004.16;5052734;28;20502;-73
2022/04/22 10:14:11;;;;;;;12.53;4.53;;;;;;;39.07;38.15;100999.66;5052581;28;20821;-69
2022/04/22 10:16:38;;;;;;;9.27;4.50;;;;;;;38.95;38.67;100997.50;5052568;28;20427;-68
2022/04/22 10:19:08;;;;;;;7.23;3.80;;;;;;;39.05;38.91;101001.88;5052624;28;20893;-72
2022/04/22 10:21:35;;;;;;;6.20;3.10;;;;;;;39.16;38.43;101005.13;5052430;28;20483;-69
2022/04/22 10:24:02;;;;;;;7.13;4.80;;;;;;;39.19;38.21;101004.53;5052547;28;20422;-71
2022/04/22 10:26:29;;;;;;;5.63;2.57;;;;;;;39.23;38.16;101005.50;5052678;28;20808;-70
2022/04/22 10:28:57;;;;;;;6.93;2.87;;;;;;;39.14;38.41;100997.28;5052243;28;21006;-70
2022/04/22 10:31:24;;;;;;;6.20;2.73;;;;;;;39.16;38.60;101010.56;5052574;28;20899;-69
2022/04/22 10:33:50;;;;;;;7.37;2.60;;;;;;;39.06;38.35;101002.69;5035960;28;20442;-68
2022/04/22 10:36:19;;;;;;;7.67;2.47;;;;;;;39.14;38.09;101012.75;5052341;28;20418;-70
2022/04/22 10:38:47;;;;;;;9.77;2.60;;;;;;;39.16;37.78;101007.84;5052163;28;20455;-70
2022/04/22 10:41:16;;;;;;;8.90;4.33;;;;;;;39.27;37.70;101008.38;5053543;28;20422;-70
2022/04/22 10:43:45;;;;;;;8.77;3.23;;;;;;;39.16;38.16;101005.94;5019218;28;21000;-68
2022/04/22 10:49:12;;;;;;;8.87;3.20;;;;;;;38.96;38.17;100999.09;5053855;28;20396;-69
2022/04/22 10:52:13;;;;;;;7.87;2.80;;;;;;;39.16;37.77;100997.78;5051840;28;20480;-70
2022/04/22 10:54:55;;;;;;;7.13;2.97;;;;;;;39.21;37.75;100997.66;5052032;28;20405;-68
2022/04/22 10:57:35;;;;;;;5.90;2.40;;;;;;;39.22;37.72;100998.47;5051897;28;20454;-68
2022/04/22 11:00:08;;;;;;;10.20;2.80;;;;;;;39.28;37.69;100986.38;5051651;28;20965;-69
2022/04/22 11:02:35;;;;;;;6.93;2.90;;;;;;;39.14;37.92;100994.56;5053152;28;20391;-70
2022/04/22 11:05:20;;;;;;;6.37;3.13;;;;;;;39.13;37.68;100981.31;5052993;28;20402;-70
2022/04/22 11:07:56;;;;;;;7.10;2.90;;;;;;;39.29;37.71;100985.28;5051559;28;20454;-70
2022/04/22 11:10:29;;;;;;;9.57;2.80;;;;;;;39.39;37.28;100976.84;5051576;28;20510;-70
2022/04/22 11:13:00;;;;;;;7.13;3.10;;;;;;;39.35;37.43;100975.88;5051438;28;20447;-70
2022/04/22 11:15:50;;;;;;;6.30;2.50;;;;;;;39.31;37.32;100979.53;5051465;28;20918;-69
2022/04/22 11:18:18;;;;;;;8.00;3.17;;;;;;;39.49;37.43;100973.84;5051357;28;20465;-69
2022/04/22 11:21:17;;;;;;;7.33;3.17;;;;;;;39.18;37.60;100971.16;5052713;28;20456;-70
2022/04/22 11:23:46;;;;;;;5.73;2.90;;;;;;;39.21;37.43;100969.72;5034534;28;20930;-68
2022/04/22 11:26:17;;;;;;;11.20;3.73;;;;;;;39.30;37.46;100957.03;5035258;28;20418;-69
2022/04/22 11:28:45;;;;;;;12.47;3.47;;;;;;;39.31;37.40;100958.63;5051010;28;20477;-70
2022/04/22 11:31:13;;;;;;;5.80;2.70;;;;;;;39.38;37.60;100953.53;5051225;28;20415;-68
2022/04/22 11:34:07;;;;;;;6.97;2.93;;;;;;;39.44;37.40;100951.47;5051157;28;20411;-68
2022/04/22 11:36:45;;;;;;;6.23;2.90;;;;;;;39.43;37.15;100947.16;5051060;28;20489;-71
2022/04/22 11:39:22;;;;;;;5.70;2.80;;;;;;;39.42;37.12;100948.28;5051201;28;20501;-70
2022/04/22 11:41:53;;;;;;;5.90;3.13;;;;;;;39.40;37.06;100945.06;5052323;28;20398;-69
2022/04/22 11:44:22;;;;;;;7.10;2.73;;;;;;;39.48;37.34;100936.16;5050985;28;20438;-70
2022/04/22 11:46:52;;;;;;;8.33;3.23;;;;;;;39.59;37.33;100931.22;5050908;28;20501;-69
2022/04/22 11:49:22;;;;;;;6.20;3.47;;;;;;;39.68;37.01;100932.88;5050968;28;20407;-68
2022/04/22 11:51:53;;;;;;;7.53;2.87;;;;;;;39.61;36.97;100920.91;5050942;28;20492;-70
2022/04/22 11:54:24;;;;;;;6.57;3.03;;;;;;;39.61;37.11;100923.63;5052279;28;20396;-70
2022/04/22 11:56:52;;;;;;;10.03;3.20;;;;;;;39.68;36.75;100918.50;5050765;28;20462;-70
2022/04/22 11:59:24;;;;;;;7.87;3.27;;;;;;;39.61;37.00;100916.25;5050636;28;20419;-69
2022/04/22 12:10:05;;;;;;;6.10;2.10;;;;;;;39.58;36.80;100899.75;5051959;28;20418;-69
2022/04/22 12:12:32;;;;;;;6.40;2.47;;;;;;;39.68;37.12;100892.16;5050408;28;20446;-69
2022/04/22 12:15:06;;;;;;;5.90;2.63;;;;;;;39.62;37.21;100887.19;5050626;28;20415;-70
2022/04/22 12:17:33;;;;;;;5.93;2.43;;;;;;;39.69;37.16;100891.03;5050457;28;20982;-70
2022/04/22 12:19:59;;;;;;;7.17;2.20;;;;;;;39.68;36.90;100875.88;5051702;28;20449;-69
2022/04/22 12:22:26;;;;;;;8.93;2.97;;;;;;;39.66;37.29;100888.16;5050386;28;20448;-68